avis per tempestes more information blitzortung!


avis per Pluja more information rain snow radar


Visita la nostra xarxa de llocs de meteo:

Template documentation
and downloads

And another site



Thunderstorms From: 20-07-2018 17:00 Until: 21-07-2018 01:59 warning for: Thunderstorms Level: Yellow info button
Rain From: 20-07-2018 17:00 Until: 21-07-2018 01:59 warning for: Rain Level: Yellow info button

Pagina Historial Weather Underground text

Diari Resum Juny 13, 2016 Unitats:  Mètric    Imperial   Tant
« Previous Dia
SegĂźent Dia »
Diari Setmana Mensual Anual Personalitzada
  Maxima: Minima: Media:
Temperatura: -17.8 °C -7.8 °C -5.1 °C
Punt de rosada: -17.8 °C -9.8 °C -8.8 °C
Humitat: Humidity % 50 % 66 %
Wind Speed: 0 km/h 0 km/h 17.7 km/h
RĂ fegues de vent: 0 km/h - -
Vent:- - East
Pression baro: 0 hPa 34029.3 hPa -
Precipitacions: 0 mm    
Historical Graphs
 
 
Dades de taula per Juny 13, 2016
Temps Temperatura Punt de rosada Pression baro Vent Wind Speed RĂ fegues de vent Humitat Rainfall Rate (Hourly)
-17.8 °C -17.8 °C 0 hPa Calm     Humidity % 0 mm
00:00 -7.3 °C -9.2 °C 34327.3 hPa ESE 5.1 km/h 10.3 km/h 81 % 0 mm
00:10 -7.3 °C -9.2 °C 34327.3 hPa ESE 5.1 km/h 10.3 km/h 81 % 0 mm
00:20 -7.4 °C -9.3 °C 34293.4 hPa ESE 5.1 km/h 10.3 km/h 80 % 0 mm
00:30 -7.5 °C -9.4 °C 34327.3 hPa ESE 5.1 km/h 10.3 km/h 80 % 0 mm
00:40 -7.6 °C -9.5 °C 34327.3 hPa ESE 5.1 km/h 10.3 km/h 80 % 0 mm
00:50 -7.6 °C -9.6 °C 34293.4 hPa ESE 5.1 km/h 10.3 km/h 80 % 0 mm
01:00 -7.7 °C -9.7 °C 34293.4 hPa ESE 5.1 km/h 10.3 km/h 79 % 0 mm
01:10 -7.7 °C -9.8 °C 34293.4 hPa ESE 5.1 km/h 10.3 km/h 79 % 0 mm
01:20 -7.7 °C -9.7 °C 34327.3 hPa ESE 5.1 km/h 10.3 km/h 80 % 0 mm
01:30 -7.8 °C -9.7 °C 34327.3 hPa ESE 5.1 km/h 10.3 km/h 80 % 0 mm
01:40 -7.8 °C -9.7 °C 34327.3 hPa ESE 5.1 km/h 10.3 km/h 80 % 0 mm
01:50 -7.8 °C -9.7 °C 34327.3 hPa ESE 5.1 km/h 10.3 km/h 80 % 0 mm
02:00 -7.8 °C -9.7 °C 34327.3 hPa East 2.6 km/h 10.3 km/h 80 % 0 mm
02:10 -7.8 °C -9.7 °C 34327.3 hPa NE 5.1 km/h 7.7 km/h 81 % 0 mm
02:20 -7.7 °C -9.6 °C 34293.4 hPa NNE 2.6 km/h 7.7 km/h 81 % 0 mm
02:30 -7.5 °C -9.4 °C 34293.4 hPa NNE 5.1 km/h 7.7 km/h 80 % 0 mm
02:40 -7.4 °C -9.4 °C 34293.4 hPa ENE 5.1 km/h 7.7 km/h 80 % 0 mm
02:50 -7.2 °C -9.5 °C 34293.4 hPa Calm   7.7 km/h 77 % 0 mm
03:00 -7.2 °C -9.5 °C 34293.4 hPa ENE 5.1 km/h 10.3 km/h 77 % 0 mm
03:10 -7 °C -9.4 °C 34293.4 hPa NE 7.7 km/h 10.3 km/h 76 % 0 mm
03:20 -6.7 °C -9.3 °C 34327.3 hPa NE 5.1 km/h 10.3 km/h 74 % 0 mm
03:30 -6.6 °C -9.3 °C 34327.3 hPa NNE 7.7 km/h 12.9 km/h 73 % 0 mm
08:33 -6.4 °C -9.2 °C 34327.3 hPa NE 9 km/h 9 km/h 73 % 0 mm
08:38 -6.4 °C -9.2 °C 34327.3 hPa ENE 11.9 km/h 11.9 km/h 73 % 0 mm
08:43 -6.3 °C -9.1 °C 34327.3 hPa ESE 11.9 km/h 11.9 km/h 73 % 0 mm
08:48 -6.3 °C -9.2 °C 34327.3 hPa NE 12.2 km/h 12.2 km/h 72 % 0 mm
08:53 -6.2 °C -9 °C 34327.3 hPa ENE 10.3 km/h 10.3 km/h 73 % 0 mm
08:58 -6.2 °C -9.1 °C 34327.3 hPa NNE 11.9 km/h 11.9 km/h 72 % 0 mm
09:03 -6.1 °C -9 °C 34327.3 hPa East 11.9 km/h 11.9 km/h 72 % 0 mm
09:08 -6.1 °C -9.1 °C 34327.3 hPa ENE 11.9 km/h 11.9 km/h 71 % 0 mm
09:13 -5.9 °C -9 °C 34327.3 hPa NE 15 km/h 15 km/h 71 % 0 mm
09:18 -5.8 °C -8.9 °C 34327.3 hPa NE 14.5 km/h 14.5 km/h 71 % 0 mm
09:28 -5.4 °C -8.7 °C 34327.3 hPa East 11.9 km/h 11.9 km/h 70 % 0 mm
09:33 -5.3 °C -8.7 °C 34327.3 hPa NNE 17.9 km/h 17.9 km/h 69 % 0 mm
09:38 -5.4 °C -8.8 °C 34327.3 hPa ESE 16.6 km/h 16.6 km/h 69 % 0 mm
09:43 -5.4 °C -8.8 °C 34293.4 hPa ESE 15 km/h 15 km/h 69 % 0 mm
09:48 -5.3 °C -8.8 °C 34293.4 hPa East 17.9 km/h 17.9 km/h 68 % 0 mm
09:53 -5.2 °C -8.7 °C 34293.4 hPa ENE 15 km/h 15 km/h 68 % 0 mm
09:58 -5.2 °C -8.7 °C 34293.4 hPa ESE 20.9 km/h 20.9 km/h 67 % 0 mm
10:03 -5.2 °C -8.8 °C 34293.4 hPa East 20.9 km/h 20.9 km/h 67 % 0 mm
10:08 -5.2 °C -8.8 °C 34293.4 hPa ESE 15 km/h 15 km/h 67 % 0 mm
10:13 -5 °C -8.7 °C 34293.4 hPa ESE 20.9 km/h 20.9 km/h 66 % 0 mm
10:18 -5.1 °C -8.8 °C 34293.4 hPa ESE 20.9 km/h 20.9 km/h 66 % 0 mm
10:33 -4.6 °C -8.6 °C 34256.2 hPa ESE 23.8 km/h 23.8 km/h 64 % 0 mm
10:38 -4.4 °C -8.6 °C 34256.2 hPa East 6 km/h 6 km/h 63 % 0 mm
10:44 -4.3 °C -8.7 °C 34256.2 hPa SW 9 km/h 9 km/h 62 % 0 mm
10:49 -4.1 °C -8.4 °C 34256.2 hPa South 11.9 km/h 11.9 km/h 62 % 0 mm
10:54 -3.9 °C -8.8 °C 34256.2 hPa East 11.9 km/h 11.9 km/h 58 % 0 mm
10:59 -3.8 °C -8.6 °C 34222.3 hPa SW 10.3 km/h 10.3 km/h 59 % 0 mm
11:04 -3.6 °C -8.7 °C 34222.3 hPa South 11.9 km/h 11.9 km/h 57 % 0 mm
11:09 -3.7 °C -8.9 °C 34222.3 hPa ESE 9 km/h 9 km/h 56 % 0 mm
11:14 -3.7 °C -8.9 °C 34256.2 hPa South 9.3 km/h 9.3 km/h 56 % 0 mm
11:19 -3.6 °C -8.8 °C 34256.2 hPa WSW 9 km/h 9 km/h 56 % 0 mm
11:24 -3.6 °C -8.9 °C 34256.2 hPa ENE 6.8 km/h 6.8 km/h 55 % 0 mm
11:29 -3.5 °C -8.9 °C 34222.3 hPa SE 9 km/h 9 km/h 55 % 0 mm
11:34 -3.3 °C -8.9 °C 34222.3 hPa ESE 11.9 km/h 11.9 km/h 54 % 0 mm
11:39 -3.1 °C -8.8 °C 34222.3 hPa ESE 15 km/h 15 km/h 53 % 0 mm
11:49 -2.9 °C -8.7 °C 34222.3 hPa ESE 15 km/h 15 km/h 53 % 0 mm
11:54 -3.2 °C -9.1 °C 34222.3 hPa SW 15 km/h 15 km/h 52 % 0 mm
11:59 -2.9 °C -8.9 °C 34222.3 hPa SW 11.9 km/h 11.9 km/h 52 % 0 mm
12:09 -2.8 °C -9.1 °C 34222.3 hPa SSE 15 km/h 15 km/h 50 % 0 mm
12:24 -3.2 °C -8.9 °C 34198.6 hPa ESE 26.9 km/h 26.9 km/h 53 % 0 mm
12:34 -3.3 °C -8.9 °C 34198.6 hPa ESE 32.8 km/h 32.8 km/h 54 % 0 mm
12:39 -3.6 °C -9.1 °C 34198.6 hPa ESE 29.8 km/h 29.8 km/h 54 % 0 mm
12:44 -3.4 °C -8.8 °C 34198.6 hPa East 32.8 km/h 32.8 km/h 55 % 0 mm
12:54 -3.8 °C -9 °C 34198.6 hPa ENE 32.8 km/h 32.8 km/h 56 % 0 mm
12:59 -3.6 °C -8.8 °C 34164.7 hPa NE 26.9 km/h 26.9 km/h 56 % 0 mm
13:04 -3.5 °C -8.7 °C 34164.7 hPa East 37.5 km/h 37.5 km/h 56 % 0 mm
13:09 -3.3 °C -8.6 °C 34164.7 hPa East 23.8 km/h 23.8 km/h 56 % 0 mm
13:14 -3.3 °C -8.6 °C 34198.6 hPa ENE 16.6 km/h 16.6 km/h 56 % 0 mm
13:19 -3.3 °C -8.6 °C 34198.6 hPa ENE 20.9 km/h 20.9 km/h 56 % 0 mm
13:24 -3.3 °C -8.6 °C 34198.6 hPa ENE 20.9 km/h 20.9 km/h 56 % 0 mm
13:34 -3.3 °C -8.6 °C 34164.7 hPa NNE 15 km/h 15 km/h 56 % 0 mm
13:39 -3.4 °C -8.7 °C 34164.7 hPa NE 20.9 km/h 20.9 km/h 56 % 0 mm
13:44 -3.6 °C -8.8 °C 34164.7 hPa ESE 20.9 km/h 20.9 km/h 56 % 0 mm
13:49 -3.7 °C -8.8 °C 34164.7 hPa ESE 23.8 km/h 23.8 km/h 57 % 0 mm
13:54 -3.8 °C -8.7 °C 34164.7 hPa ESE 26.9 km/h 26.9 km/h 58 % 0 mm
13:59 -3.8 °C -8.6 °C 34130.9 hPa ENE 20.9 km/h 20.9 km/h 59 % 0 mm
14:04 -3.8 °C -8.6 °C 34130.9 hPa ESE 25.1 km/h 25.1 km/h 59 % 0 mm
14:09 -3.8 °C -8.4 °C 34130.9 hPa ENE 17.9 km/h 17.9 km/h 60 % 0 mm
14:14 -3.8 °C -8.4 °C 34130.9 hPa ENE 26.9 km/h 26.9 km/h 60 % 0 mm
14:19 -3.8 °C -8.4 °C 34130.9 hPa ENE 20.9 km/h 20.9 km/h 60 % 0 mm
14:24 -3.8 °C -8.4 °C 34130.9 hPa NE 26.9 km/h 26.9 km/h 60 % 0 mm
14:29 -3.8 °C -8.4 °C 34130.9 hPa ESE 20.9 km/h 20.9 km/h 60 % 0 mm
14:34 -3.9 °C -8.4 °C 34130.9 hPa ESE 25.9 km/h 25.9 km/h 61 % 0 mm
14:44 -4.1 °C -8.2 °C 34164.7 hPa NNE 20.9 km/h 20.9 km/h 63 % 0 mm
14:49 -4 °C -8.2 °C 34164.7 hPa East 20.9 km/h 20.9 km/h 63 % 0 mm
14:54 -3.9 °C -8.1 °C 34164.7 hPa NE 17.9 km/h 17.9 km/h 63 % 0 mm
14:59 -4.1 °C -8.3 °C 34164.7 hPa ESE 32.8 km/h 32.8 km/h 63 % 0 mm
15:04 -4.2 °C -8.2 °C 34164.7 hPa ESE 23.8 km/h 23.8 km/h 64 % 0 mm
15:09 -4 °C -8.1 °C 34164.7 hPa ESE 26.9 km/h 26.9 km/h 64 % 0 mm
15:14 -4.2 °C -8.1 °C 34164.7 hPa East 29.8 km/h 29.8 km/h 65 % 0 mm
15:19 -4.2 °C -8.1 °C 34164.7 hPa ESE 38.8 km/h 38.8 km/h 65 % 0 mm
15:24 -4 °C -7.9 °C 34164.7 hPa ESE 20.9 km/h 20.9 km/h 65 % 0 mm
15:29 -3.8 °C -8 °C 34130.9 hPa ESE 29.8 km/h 29.8 km/h 63 % 0 mm
15:34 -3.9 °C -7.9 °C 34130.9 hPa ENE 23.8 km/h 23.8 km/h 64 % 0 mm
15:44 -4 °C -7.9 °C 34164.7 hPa NE 23.8 km/h 23.8 km/h 65 % 0 mm
15:49 -4.1 °C -8 °C 34164.7 hPa ESE 29.8 km/h 29.8 km/h 65 % 0 mm
15:54 -4.1 °C -8 °C 34164.7 hPa ESE 22.5 km/h 22.5 km/h 65 % 0 mm
15:59 -4.1 °C -8 °C 34130.9 hPa East 17.9 km/h 17.9 km/h 65 % 0 mm
16:04 -3.9 °C -7.9 °C 34130.9 hPa ENE 22 km/h 22 km/h 64 % 0 mm
16:09 -3.7 °C -7.9 °C 34130.9 hPa ESE 23.8 km/h 23.8 km/h 63 % 0 mm
16:14 -3.6 °C -7.8 °C 34130.9 hPa ESE 23.8 km/h 23.8 km/h 63 % 0 mm
16:19 -3.7 °C -7.9 °C 34130.9 hPa NNE 23.8 km/h 23.8 km/h 63 % 0 mm
16:24 -3.4 °C -7.7 °C 34130.9 hPa ENE 10.3 km/h 10.3 km/h 63 % 0 mm
16:29 -3.2 °C -7.6 °C 34130.9 hPa East 20.9 km/h 20.9 km/h 62 % 0 mm
16:34 -3.4 °C -7.8 °C 34130.9 hPa NNW 20.9 km/h 20.9 km/h 62 % 0 mm
16:39 -3.6 °C -7.9 °C 34130.9 hPa ESE 17.9 km/h 17.9 km/h 62 % 0 mm
16:44 -3.6 °C -8.1 °C 34130.9 hPa ESE 29.8 km/h 29.8 km/h 61 % 0 mm
16:49 -3.3 °C -7.8 °C 34130.9 hPa East 26.9 km/h 26.9 km/h 61 % 0 mm
16:54 -3.2 °C -7.7 °C 34130.9 hPa ENE 23.8 km/h 23.8 km/h 61 % 0 mm
16:59 -3.2 °C -7.8 °C 34130.9 hPa ESE 20.9 km/h 20.9 km/h 60 % 0 mm
17:04 -3.2 °C -7.8 °C 34130.9 hPa ESE 23.8 km/h 23.8 km/h 60 % 0 mm
17:09 -3.3 °C -7.9 °C 34130.9 hPa ENE 27.7 km/h 27.7 km/h 60 % 0 mm
17:14 -3.3 °C -8.1 °C 34130.9 hPa ESE 17.9 km/h 17.9 km/h 59 % 0 mm
17:19 -3.2 °C -7.9 °C 34130.9 hPa East 23.8 km/h 23.8 km/h 59 % 0 mm
17:24 -3.3 °C -8.2 °C 34130.9 hPa ENE 26.9 km/h 26.9 km/h 58 % 0 mm
17:29 -3.2 °C -8.3 °C 34130.9 hPa NNE 26.9 km/h 26.9 km/h 57 % 0 mm
17:34 -3.4 °C -8.6 °C 34130.9 hPa ESE 20.9 km/h 22 km/h 57 % 0 mm
17:39 -3.7 °C -8.6 °C 34130.9 hPa SE 26.9 km/h 26.9 km/h 58 % 0 mm
17:44 -3.8 °C -8.8 °C 34130.9 hPa East 26.9 km/h 26.9 km/h 57 % 0 mm
17:49 -3.6 °C -8.7 °C 34130.9 hPa ESE 32.8 km/h 32.8 km/h 57 % 0 mm
17:54 -3.7 °C -8.7 °C 34130.9 hPa ESE 22 km/h 22 km/h 57 % 0 mm
17:59 -3.7 °C -8.7 °C 34097 hPa NNE 32.8 km/h 32.8 km/h 57 % 0 mm
18:04 -3.4 °C -8.6 °C 34097 hPa ESE 29.8 km/h 29.8 km/h 57 % 0 mm
18:09 -3.4 °C -8.7 °C 34097 hPa ENE 16.6 km/h 16.6 km/h 56 % 0 mm
18:14 -3.5 °C -8.7 °C 34097 hPa NE 20.9 km/h 20.9 km/h 56 % 0 mm
18:19 -3.7 °C -8.9 °C 34097 hPa East 29.8 km/h 29.8 km/h 56 % 0 mm
18:24 -3.8 °C -9 °C 34097 hPa East 23.8 km/h 23.8 km/h 56 % 0 mm
18:29 -3.9 °C -9.1 °C 34063.2 hPa ESE 27.2 km/h 27.2 km/h 56 % 0 mm
18:34 -3.9 °C -9 °C 34063.2 hPa NNE 32.8 km/h 32.8 km/h 57 % 0 mm
18:39 -4 °C -9.1 °C 34063.2 hPa ENE 38.8 km/h 38.8 km/h 57 % 0 mm
18:44 -4.1 °C -9 °C 34063.2 hPa ENE 20.9 km/h 24.3 km/h 58 % 0 mm
18:49 -4.2 °C -8.9 °C 34063.2 hPa ENE 32.8 km/h 32.8 km/h 59 % 0 mm
18:54 -4.3 °C -9 °C 34063.2 hPa ENE 17.9 km/h 17.9 km/h 59 % 0 mm
18:59 -4.4 °C -9.1 °C 34029.3 hPa NE 16.6 km/h 19.2 km/h 59 % 0 mm
19:04 -4.4 °C -9.2 °C 34029.3 hPa ESE 22 km/h 22.5 km/h 59 % 0 mm
19:09 -4.6 °C -9 °C 34029.3 hPa NE 32.8 km/h 32.8 km/h 61 % 0 mm
19:10 -6.4 °C -8.8 °C 34164.7 hPa ENE 7.7 km/h 7.7 km/h 76 % 0 mm
19:14 -4.6 °C -9 °C 34063.2 hPa ENE 15 km/h 15 km/h 61 % 0 mm
19:19 -4.6 °C -9 °C 34063.2 hPa ESE 17.9 km/h 17.9 km/h 61 % 0 mm
19:20 -6.4 °C -8.8 °C 34164.7 hPa East 7.7 km/h 7.7 km/h 77 % 0 mm
19:24 -4.6 °C -9 °C 34063.2 hPa ESE 20.9 km/h 20.9 km/h 61 % 0 mm
19:30 -6.4 °C -8.8 °C 34164.7 hPa East 7.7 km/h 7.7 km/h 77 % 0 mm
19:39 -4.7 °C -9.1 °C 34063.2 hPa ENE 32.8 km/h 32.8 km/h 61 % 0 mm
19:40 -6.5 °C -8.8 °C 34164.7 hPa East 7.7 km/h 7.7 km/h 77 % 0 mm
19:44 -4.7 °C -9.1 °C 34063.2 hPa NNE 20.9 km/h 20.9 km/h 61 % 0 mm
19:49 -4.8 °C -9.1 °C 34063.2 hPa ENE 22 km/h 22 km/h 62 % 0 mm
19:50 -6.6 °C -8.8 °C 34198.6 hPa East 7.7 km/h 7.7 km/h 78 % 0 mm
19:54 -4.8 °C -9.1 °C 34063.2 hPa North 16.1 km/h 20.3 km/h 62 % 0 mm
20:00 -6.6 °C -8.8 °C 34164.7 hPa East 7.7 km/h 7.7 km/h 78 % 0 mm
20:04 -4.9 °C -9.2 °C 34063.2 hPa NNE 20.9 km/h 20.9 km/h 62 % 0 mm
20:09 -4.9 °C -9.2 °C 34063.2 hPa East 26.9 km/h 26.9 km/h 62 % 0 mm
20:10 -6.6 °C -8.8 °C 34164.7 hPa East 7.7 km/h 7.7 km/h 78 % 0 mm
20:14 -4.9 °C -9.2 °C 34063.2 hPa ESE 20.3 km/h 20.3 km/h 62 % 0 mm
20:19 -5 °C -9.3 °C 34063.2 hPa ESE 9.8 km/h 17.9 km/h 62 % 0 mm
20:20 -6.6 °C -8.7 °C 34198.6 hPa East 7.7 km/h 7.7 km/h 79 % 0 mm
20:24 -5.1 °C -9.2 °C 34063.2 hPa SSE 19.6 km/h 19.6 km/h 63 % 0 mm
20:29 -5.1 °C -9.2 °C 34063.2 hPa East 16.1 km/h 16.1 km/h 63 % 0 mm
20:30 -6.7 °C -8.7 °C 34198.6 hPa East 5.1 km/h 7.7 km/h 80 % 0 mm
20:39 -5.2 °C -9.1 °C 34063.2 hPa ENE 20.9 km/h 20.9 km/h 65 % 0 mm
20:40 -6.7 °C -8.7 °C 34198.6 hPa ENE 5.1 km/h 7.7 km/h 80 % 0 mm
20:44 -5.3 °C -9.2 °C 34097 hPa ENE 20.9 km/h 20.9 km/h 65 % 0 mm
20:49 -5.3 °C -9.1 °C 34097 hPa ENE 20.9 km/h 20.9 km/h 66 % 0 mm
20:50 -6.8 °C -8.7 °C 34198.6 hPa NNE 5.1 km/h 5.1 km/h 81 % 0 mm
20:54 -5.4 °C -9.1 °C 34097 hPa ENE 20.9 km/h 20.9 km/h 66 % 0 mm
20:59 -5.4 °C -9.1 °C 34097 hPa ENE 20.9 km/h 20.9 km/h 66 % 0 mm
21:00 -6.9 °C -8.8 °C 34198.6 hPa NNE 5.1 km/h 5.1 km/h 81 % 0 mm
21:04 -5.4 °C -9.1 °C 34097 hPa ENE 20.9 km/h 20.9 km/h 66 % 0 mm
21:09 -5.5 °C -9.1 °C 34097 hPa ENE 20.9 km/h 20.9 km/h 67 % 0 mm
21:10 -6.9 °C -8.7 °C 34198.6 hPa NNE 5.1 km/h 5.1 km/h 82 % 0 mm
21:14 -5.6 °C -9.1 °C 34097 hPa ENE 20.9 km/h 20.9 km/h 68 % 0 mm
21:19 -5.6 °C -9.1 °C 34097 hPa ENE 20.9 km/h 20.9 km/h 68 % 0 mm
21:20 -7 °C -8.7 °C 34198.6 hPa NNE 5.1 km/h 5.1 km/h 83 % 0 mm
21:24 -5.7 °C -9.1 °C 34097 hPa ENE 20.9 km/h 20.9 km/h 68 % 0 mm
21:29 -5.7 °C -9 °C 34097 hPa ENE 20.9 km/h 20.9 km/h 69 % 0 mm
21:30 -7 °C -8.7 °C 34198.6 hPa NNE 5.1 km/h 5.1 km/h 83 % 0 mm
21:34 -5.7 °C -9 °C 34097 hPa ENE 20.9 km/h 20.9 km/h 69 % 0 mm
21:39 -5.8 °C -8.9 °C 34097 hPa ENE 20.9 km/h 20.9 km/h 70 % 0 mm
21:40 -7.1 °C -8.7 °C 34198.6 hPa NNE 5.1 km/h 5.1 km/h 83 % 0 mm
21:44 -5.8 °C -9 °C 34130.9 hPa ENE 20.9 km/h 20.9 km/h 70 % 0 mm
21:49 -5.8 °C -9 °C 34130.9 hPa ENE 20.9 km/h 20.9 km/h 70 % 0 mm
21:50 -7.1 °C -8.8 °C 34198.6 hPa NNE 5.1 km/h 5.1 km/h 83 % 0 mm
21:54 -5.9 °C -8.9 °C 34130.9 hPa ENE 20.9 km/h 20.9 km/h 71 % 0 mm
21:59 -5.9 °C -9 °C 34130.9 hPa ENE 20.9 km/h 20.9 km/h 71 % 0 mm
22:00 -7.1 °C -8.7 °C 34198.6 hPa NNE 5.1 km/h 5.1 km/h 84 % 0 mm
22:04 -5.9 °C -9 °C 34130.9 hPa ENE 20.9 km/h 20.9 km/h 71 % 0 mm
22:09 -6 °C -9.1 °C 34130.9 hPa ENE 20.9 km/h 20.9 km/h 71 % 0 mm
22:10 -7.2 °C -8.7 °C 34198.6 hPa NNE 5.1 km/h 5.1 km/h 84 % 0 mm
22:14 -6 °C -9.1 °C 34130.9 hPa ENE 20.9 km/h 20.9 km/h 71 % 0 mm
22:20 -6.1 °C -9.1 °C 34130.9 hPa ENE 20.8 km/h 20.8 km/h 71 % 0 mm
22:25 -6.1 °C -9.1 °C 34130.9 hPa ENE 20.9 km/h 20.9 km/h 71 % 0 mm
22:30 -6.1 °C -9.1 °C 34130.9 hPa ENE 20.9 km/h 20.9 km/h 71 % 0 mm
22:35 -6.1 °C -9.1 °C 34130.9 hPa ENE 20.9 km/h 20.9 km/h 71 % 0 mm
22:40 -6.1 °C -9.1 °C 34130.9 hPa ENE 20.9 km/h 20.9 km/h 71 % 0 mm
22:45 -6.1 °C -9.1 °C 34164.7 hPa ENE 20.9 km/h 20.9 km/h 71 % 0 mm
22:50 -7.3 °C -8.7 °C 34198.6 hPa NNE 5.1 km/h 5.1 km/h 85 % 0 mm
22:55 -6.2 °C -9.1 °C 34164.7 hPa ENE 20.9 km/h 20.9 km/h 72 % 0 mm
23:00 -6.2 °C -9.1 °C 34164.7 hPa ENE 20.8 km/h 20.8 km/h 72 % 0 mm
23:05 -6.2 °C -9.1 °C 34164.7 hPa ENE 20.9 km/h 20.9 km/h 72 % 0 mm
23:10 -6.2 °C -9.1 °C 34164.7 hPa ENE 20.9 km/h 20.9 km/h 72 % 0 mm
23:15 -6.3 °C -9.1 °C 34198.6 hPa ENE 20.9 km/h 20.9 km/h 73 % 0 mm
23:20 -6.3 °C -9.1 °C 34198.6 hPa ENE 20.9 km/h 20.9 km/h 73 % 0 mm
23:25 -6.3 °C -9.1 °C 34198.6 hPa ENE 20.9 km/h 20.9 km/h 73 % 0 mm
23:30 -6.3 °C -9.1 °C 34164.7 hPa ENE 20.9 km/h 20.9 km/h 73 % 0 mm
23:35 -6.3 °C -9 °C 34164.7 hPa ENE 20.9 km/h 20.9 km/h 74 % 0 mm
23:40 -6.3 °C -9 °C 34164.7 hPa ENE 20.9 km/h 20.9 km/h 74 % 0 mm
23:45 -6.3 °C -9 °C 34198.6 hPa ENE 20.9 km/h 20.9 km/h 74 % 0 mm
23:50 -6.4 °C -8.9 °C 34198.6 hPa ENE 20.9 km/h 20.9 km/h 75 % 0 mm
23:55 -6.4 °C -8.9 °C 34198.6 hPa ENE 20.9 km/h 20.9 km/h 75 % 0 mm
Meteo Sesrovires
Elogis d' Weather Underground - 2 mb

Guio original per  Jim McMurry - jmcmurry@mwt.net Adaptat per a la plantilla per  Wim van der Kuil - Leuven-Template.eu

Trobareu la nostra informacio del temps tambe a:

Weather Underground

AWEKAS